Time;durP1;ratioP1;P1;durP2;ratioP2;P2;SDS_P1;SDS_P2;PMS_P1;PMS_P2;Temp;Humidity;BMP_temperature;BMP_pressure;BME280_temperature;BME280_humidity;BME280_pressure;Samples;Min_cycle;Max_cycle;Signal;HPM_P1;HPM_P2
2021/08/01 00:00:00;;;;;;;13.15;6.82;;;23.70;62.30;;;;;;5095460;28;20028;-78
2021/08/01 00:02:26;;;;;;;11.90;7.45;;;23.70;62.70;;;;;;5113423;28;20408;-78
2021/08/01 00:04:52;;;;;;;11.70;6.57;;;23.80;63.10;;;;;;5095342;28;20063;-78
2021/08/01 00:07:18;;;;;;;15.15;6.95;;;23.80;63.20;;;;;;5113532;28;20023;-79
2021/08/01 00:09:44;;;;;;;10.65;6.65;;;23.80;63.10;;;;;;5112850;28;20027;-79
2021/08/01 00:12:10;;;;;;;11.98;6.82;;;23.70;62.80;;;;;;5113410;28;20175;-78
2021/08/01 00:14:35;;;;;;;14.00;7.25;;;23.70;63.30;;;;;;5113229;28;20092;-80
2021/08/01 00:17:02;;;;;;;11.38;7.05;;;23.60;63.70;;;;;;5113451;28;20028;-80
2021/08/01 00:19:28;;;;;;;14.38;7.45;;;23.60;63.50;;;;;;5113629;28;20364;-80
2021/08/01 00:21:53;;;;;;;10.75;6.50;;;23.60;63.50;;;;;;5114586;28;20088;-80
2021/08/01 00:24:19;;;;;;;12.65;6.85;;;23.60;63.60;;;;;;5116642;28;20032;-80
2021/08/01 00:26:45;;;;;;;8.85;6.10;;;23.50;63.60;;;;;;5116961;28;20452;-80
2021/08/01 00:29:11;;;;;;;10.52;7.00;;;23.50;63.80;;;;;;5116199;28;20039;-81
2021/08/01 00:31:37;;;;;;;9.85;6.75;;;23.50;64.20;;;;;;5116392;28;20042;-80
2021/08/01 00:34:03;;;;;;;10.38;7.05;;;23.50;64.20;;;;;;5117162;28;20118;-80
2021/08/01 00:36:29;;;;;;;14.70;7.40;;;23.50;64.30;;;;;;5117218;28;20047;-80
2021/08/01 00:38:55;;;;;;;12.32;6.78;;;23.60;64.00;;;;;;5117076;28;20032;-80
2021/08/01 00:41:21;;;;;;;14.70;6.90;;;23.50;63.70;;;;;;5117002;28;20101;-80
2021/08/01 00:43:47;;;;;;;12.10;7.13;;;23.50;64.30;;;;;;5117018;28;20032;-79
2021/08/01 00:46:17;;;;;;;12.27;7.15;;;23.50;64.00;;;;;;5098492;28;20407;-79
2021/08/01 00:48:43;;;;;;;9.75;6.80;;;23.50;64.40;;;;;;5096499;28;20031;-80
2021/08/01 00:51:09;;;;;;;11.10;7.75;;;23.50;64.20;;;;;;5095502;28;20135;-80
2021/08/01 00:53:35;;;;;;;11.88;6.88;;;23.50;64.40;;;;;;5078351;28;20039;-80
2021/08/01 00:56:02;;;;;;;14.85;6.68;;;23.50;64.50;;;;;;5096224;28;20040;-80
2021/08/01 00:58:28;;;;;;;10.50;6.65;;;23.50;64.40;;;;;;5062208;28;20522;-80
2021/08/01 01:03:34;;;;;;;9.68;6.78;;;23.50;64.60;;;;;;5078235;28;20416;-79
2021/08/01 01:06:08;;;;;;;10.30;6.20;;;23.40;65.00;;;;;;5087233;28;20503;-79
2021/08/01 01:08:57;;;;;;;15.60;6.57;;;23.40;65.00;;;;;;5116738;28;20047;-80
2021/08/01 01:11:42;;;;;;;9.70;6.38;;;23.40;65.00;;;;;;5098768;28;20172;-79
2021/08/01 01:14:20;;;;;;;12.23;6.47;;;23.40;64.80;;;;;;5098206;28;20035;-79
2021/08/01 01:16:50;;;;;;;13.70;7.35;;;23.40;65.00;;;;;;5115193;28;20027;-79
2021/08/01 01:19:37;;;;;;;10.80;6.68;;;23.40;64.80;;;;;;5116483;28;20427;-79
2021/08/01 01:22:13;;;;;;;;;;;23.40;64.90;;;;;;5116802;28;20038;-79
2021/08/01 01:25:04;;;;;;;10.43;6.50;;;23.40;64.60;;;;;;5095655;28;20299;-80
2021/08/01 01:27:41;;;;;;;16.58;6.10;;;23.50;64.50;;;;;;5095482;28;20044;-80
2021/08/01 01:30:09;;;;;;;10.48;6.95;;;23.50;64.50;;;;;;5105063;28;20032;-80
2021/08/01 01:32:47;;;;;;;13.95;8.05;;;23.50;64.60;;;;;;5097881;28;20529;-80
2021/08/01 01:35:18;;;;;;;14.43;7.05;;;23.50;65.00;;;;;;5115937;28;20396;-80
2021/08/01 01:37:54;;;;;;;13.65;7.45;;;23.40;65.00;;;;;;5116062;28;20035;-80
2021/08/01 01:40:41;;;;;;;11.57;7.03;;;23.40;64.70;;;;;;5094235;28;20092;-79
2021/08/01 01:43:26;;;;;;;10.98;7.57;;;23.30;64.70;;;;;;5100831;28;20177;-80
2021/08/01 01:45:54;;;;;;;10.35;7.82;;;23.30;65.40;;;;;;5115000;28;20036;-80
2021/08/01 01:48:21;;;;;;;15.32;7.40;;;23.30;65.60;;;;;;5114257;28;20047;-80
2021/08/01 01:50:49;;;;;;;15.80;6.63;;;23.20;65.80;;;;;;5115044;28;21746;-80
2021/08/01 01:53:16;;;;;;;14.77;7.03;;;23.10;65.60;;;;;;5097313;28;20031;-80
2021/08/01 01:55:42;;;;;;;8.35;6.60;;;23.10;65.80;;;;;;5115320;28;20127;-80
2021/08/01 01:58:12;;;;;;;11.43;7.15;;;23.10;65.70;;;;;;5116088;28;20055;-80
2021/08/01 02:00:41;;;;;;;13.52;7.03;;;23.10;65.30;;;;;;5097110;28;20049;-80
2021/08/01 02:03:08;;;;;;;10.57;6.45;;;23.10;65.30;;;;;;5097073;28;20142;-80
2021/08/01 02:06:00;;;;;;;14.00;7.05;;;23.10;66.20;;;;;;5098367;28;20048;-80
2021/08/01 02:08:49;;;;;;;9.05;7.00;;;23.20;65.60;;;;;;5107673;28;20112;-80
2021/08/01 02:11:53;;;;;;;10.70;6.28;;;23.20;65.40;;;;;;5098759;28;20043;-80
2021/08/01 02:15:04;;;;;;;15.38;6.82;;;23.20;65.80;;;;;;5093663;28;20044;-80
2021/08/01 02:17:55;;;;;;;11.32;6.35;;;23.20;65.70;;;;;;5095000;28;20118;-80
2021/08/01 02:20:29;;;;;;;9.57;6.97;;;23.20;65.60;;;;;;5094951;28;20047;-81
2021/08/01 02:23:27;;;;;;;11.82;6.50;;;23.30;65.60;;;;;;5107182;28;20130;-81
2021/08/01 02:25:55;;;;;;;8.95;6.88;;;23.40;65.30;;;;;;5114803;28;20070;-81
2021/08/01 02:28:23;;;;;;;9.32;6.20;;;23.50;65.00;;;;;;5096649;28;20058;-81
2021/08/01 02:30:54;;;;;;;9.70;6.10;;;23.50;64.80;;;;;;5114869;28;20038;-81
2021/08/01 02:33:26;;;;;;;13.07;7.28;;;23.60;64.90;;;;;;5096478;28;20055;-82
2021/08/01 02:35:59;;;;;;;10.38;6.85;;;23.70;64.60;;;;;;5115162;28;20040;-82
2021/08/01 02:38:29;;;;;;;12.38;7.10;;;23.80;64.40;;;;;;5095492;28;20039;-82
2021/08/01 02:41:01;;;;;;;8.70;7.03;;;23.90;64.50;;;;;;5115008;28;20499;-82
2021/08/01 02:43:30;;;;;;;13.48;7.15;;;23.90;64.20;;;;;;5114670;28;20091;-80
2021/08/01 02:45:58;;;;;;;9.82;6.57;;;24.00;64.20;;;;;;5095662;28;20126;-80
2021/08/01 02:48:28;;;;;;;14.27;6.88;;;24.10;64.30;;;;;;5096496;28;20042;-78
2021/08/01 02:51:00;;;;;;;12.40;7.13;;;24.20;64.20;;;;;;5096408;28;20411;-78
2021/08/01 02:53:27;;;;;;;12.20;6.60;;;24.30;63.90;;;;;;5113176;28;20492;-80
2021/08/01 02:55:57;;;;;;;6.78;5.85;;;24.30;63.90;;;;;;5096061;28;20443;-79
2021/08/01 02:58:27;;;;;;;9.88;6.10;;;24.40;63.90;;;;;;5114329;28;20040;-79
2021/08/01 03:00:56;;;;;;;10.98;6.80;;;24.40;63.90;;;;;;5113889;28;20069;-79
2021/08/01 03:03:23;;;;;;;9.40;6.47;;;24.40;63.40;;;;;;5115132;28;20052;-79
2021/08/01 03:05:50;;;;;;;13.02;6.78;;;24.40;64.10;;;;;;5113761;28;20051;-80
2021/08/01 03:08:16;;;;;;;10.77;6.75;;;24.30;64.30;;;;;;5113802;28;20038;-80
2021/08/01 03:10:48;;;;;;;10.60;6.78;;;24.30;64.00;;;;;;5113719;28;20123;-80
2021/08/01 03:13:17;;;;;;;10.80;6.95;;;24.30;64.40;;;;;;5095903;28;20035;-80
2021/08/01 03:15:43;;;;;;;12.55;7.53;;;24.20;63.80;;;;;;5113278;28;20036;-79
2021/08/01 03:18:10;;;;;;;10.93;7.00;;;24.20;63.80;;;;;;5114433;28;20038;-80
2021/08/01 03:20:37;;;;;;;7.57;6.30;;;24.20;63.60;;;;;;5113774;28;20036;-80
2021/08/01 03:23:21;;;;;;;10.90;6.85;;;24.10;63.80;;;;;;5114090;28;20445;-80
2021/08/01 03:26:12;;;;;;;13.80;7.35;;;24.10;63.50;;;;;;5112771;28;20449;-80
2021/08/01 03:28:42;;;;;;;10.07;6.95;;;24.10;63.80;;;;;;5113624;28;20483;-81
2021/08/01 03:31:08;;;;;;;10.77;6.95;;;24.00;63.50;;;;;;5113410;28;20036;-81
2021/08/01 03:33:41;;;;;;;12.27;6.82;;;24.00;64.00;;;;;;5113709;28;20035;-81
2021/08/01 03:36:08;;;;;;;12.80;6.57;;;24.10;64.40;;;;;;5111618;28;20040;-79
2021/08/01 03:39:12;;;;;;;16.17;7.65;;;24.10;64.60;;;;;;5070975;28;20045;-80
2021/08/01 03:41:41;;;;;;;9.77;6.65;;;24.20;64.60;;;;;;5070147;28;20131;-79
2021/08/01 03:44:12;;;;;;;14.60;6.95;;;24.20;64.70;;;;;;5075226;28;20092;-79
2021/08/01 03:46:38;;;;;;;10.40;6.13;;;24.20;63.60;;;;;;5113715;28;20043;-80
2021/08/01 03:49:04;;;;;;;12.77;6.60;;;24.20;63.60;;;;;;5113467;28;20172;-79
2021/08/01 03:51:30;;;;;;;12.43;6.15;;;24.20;63.60;;;;;;5113335;28;20510;-80
2021/08/01 03:53:56;;;;;;;13.00;6.43;;;24.20;64.00;;;;;;5113681;28;20035;-79
2021/08/01 03:56:22;;;;;;;9.98;6.53;;;24.30;63.90;;;;;;5113952;28;20403;-79
2021/08/01 03:58:48;;;;;;;13.63;6.63;;;24.30;63.10;;;;;;5099507;28;20031;-79
2021/08/01 04:01:14;;;;;;;11.02;6.88;;;24.40;63.70;;;;;;5117643;28;20039;-79
2021/08/01 04:03:40;;;;;;;8.77;6.18;;;24.40;63.70;;;;;;5117197;28;20062;-79
2021/08/01 04:06:06;;;;;;;13.85;6.05;;;24.60;63.80;;;;;;5117091;28;20039;-79
2021/08/01 04:08:34;;;;;;;13.02;6.63;;;24.70;63.40;;;;;;5117498;28;20057;-79
2021/08/01 04:11:05;;;;;;;9.60;5.60;;;24.80;62.50;;;;;;5117740;28;20035;-79
2021/08/01 04:13:32;;;;;;;10.40;6.43;;;24.90;62.70;;;;;;5117410;28;20077;-79
2021/08/01 04:15:58;;;;;;;6.78;5.40;;;25.00;62.80;;;;;;5117295;28;20035;-79
2021/08/01 04:18:24;;;;;;;9.23;6.18;;;25.10;62.60;;;;;;5117042;28;20159;-79
2021/08/01 04:20:49;;;;;;;10.77;6.30;;;25.30;62.30;;;;;;5117255;28;20047;-79
2021/08/01 04:23:15;;;;;;;10.75;6.45;;;25.40;62.00;;;;;;5117285;28;20047;-80
2021/08/01 04:25:41;;;;;;;12.77;6.53;;;25.50;61.50;;;;;;5117492;28;20075;-80
2021/08/01 04:28:07;;;;;;;8.55;5.55;;;25.60;61.50;;;;;;5117131;28;20043;-81
2021/08/01 04:30:33;;;;;;;9.50;5.85;;;25.80;61.70;;;;;;5117296;28;20035;-79
2021/08/01 04:32:59;;;;;;;9.25;5.45;;;25.90;61.50;;;;;;5116787;28;20043;-78
2021/08/01 04:35:25;;;;;;;8.60;5.18;;;26.00;61.30;;;;;;5116853;28;20399;-78
2021/08/01 04:37:50;;;;;;;8.45;5.78;;;26.10;61.30;;;;;;5116928;28;20054;-80
2021/08/01 04:40:16;;;;;;;8.30;5.50;;;26.30;60.50;;;;;;5116968;28;20035;-80
2021/08/01 04:42:42;;;;;;;10.23;5.30;;;26.40;60.30;;;;;;5116715;28;20114;-78
2021/08/01 04:45:09;;;;;;;11.77;6.03;;;26.50;60.00;;;;;;5117330;28;20392;-78
2021/08/01 04:47:34;;;;;;;10.95;5.40;;;26.60;59.00;;;;;;5116761;28;20047;-78
2021/08/01 04:50:00;;;;;;;11.20;5.18;;;26.70;59.20;;;;;;5117134;28;20030;-79
2021/08/01 04:52:26;;;;;;;8.65;5.40;;;26.80;59.40;;;;;;5116565;28;20035;-79
2021/08/01 04:54:52;;;;;;;11.93;5.32;;;26.90;59.50;;;;;;5116907;28;20039;-77
2021/08/01 04:57:18;;;;;;;11.32;5.60;;;27.10;59.20;;;;;;5116658;28;20066;-77
2021/08/01 04:59:44;;;;;;;11.80;5.38;;;27.10;58.70;;;;;;5098223;28;20040;-75
2021/08/01 05:02:10;;;;;;;7.50;5.45;;;27.30;58.60;;;;;;5116091;28;20078;-76
2021/08/01 05:04:35;;;;;;;10.48;5.60;;;27.40;58.60;;;;;;5116195;28;20081;-75
2021/08/01 05:07:02;;;;;;;9.45;4.97;;;27.50;58.00;;;;;;5116123;28;20035;-74
2021/08/01 05:09:28;;;;;;;12.77;5.03;;;27.60;58.20;;;;;;5115865;28;20028;-77
2021/08/01 05:11:53;;;;;;;9.43;4.93;;;27.70;58.60;;;;;;5081248;28;20084;-76
2021/08/01 05:14:19;;;;;;;14.50;6.13;;;27.80;58.20;;;;;;5116255;28;20032;-78
2021/08/01 05:16:45;;;;;;;11.02;5.30;;;28.00;58.00;;;;;;5116686;28;20039;-76
2021/08/01 05:19:11;;;;;;;10.55;4.97;;;28.10;56.70;;;;;;5114626;28;20046;-79
2021/08/01 05:21:37;;;;;;;10.93;5.47;;;28.20;57.00;;;;;;5116259;28;20035;-78
2021/08/01 05:24:03;;;;;;;10.35;5.40;;;28.30;56.70;;;;;;5115927;28;20032;-75
2021/08/01 05:26:29;;;;;;;11.10;4.82;;;28.40;56.90;;;;;;5114808;28;20499;-77
2021/08/01 05:28:55;;;;;;;14.55;5.05;;;28.50;56.20;;;;;;5115846;28;20067;-78
2021/08/01 05:31:20;;;;;;;8.80;4.28;;;28.60;55.90;;;;;;5115912;28;20031;-78
2021/08/01 05:33:46;;;;;;;9.38;4.22;;;28.70;55.20;;;;;;5115459;28;20039;-77
2021/08/01 05:36:12;;;;;;;6.78;4.60;;;28.80;55.60;;;;;;5115683;28;20028;-78
2021/08/01 05:38:39;;;;;;;9.50;4.50;;;28.90;55.30;;;;;;5115781;28;20028;-78
2021/08/01 05:41:05;;;;;;;5.35;3.88;;;28.90;54.70;;;;;;5115704;28;20093;-78
2021/08/01 05:43:31;;;;;;;10.25;4.10;;;29.00;54.20;;;;;;5115466;28;20050;-78
2021/08/01 05:45:57;;;;;;;10.98;4.03;;;29.00;53.70;;;;;;5115576;28;20039;-78
2021/08/01 05:48:23;;;;;;;7.45;3.95;;;29.00;53.70;;;;;;5115906;28;20110;-78
2021/08/01 05:50:50;;;;;;;7.97;4.22;;;29.10;53.90;;;;;;5115469;28;20065;-78
2021/08/01 05:53:20;;;;;;;10.00;3.88;;;29.20;53.70;;;;;;5115860;28;20106;-78
2021/08/01 05:55:47;;;;;;;8.02;3.70;;;29.20;53.30;;;;;;5116256;28;20046;-78
2021/08/01 05:58:14;;;;;;;6.80;3.92;;;29.20;53.00;;;;;;5115550;28;20047;-78
2021/08/01 06:00:39;;;;;;;7.78;4.03;;;29.30;52.40;;;;;;5115319;28;20035;-78
2021/08/01 06:03:05;;;;;;;8.85;4.10;;;29.30;53.10;;;;;;5115909;28;20441;-79
2021/08/01 06:05:31;;;;;;;6.43;3.88;;;29.30;53.10;;;;;;5113691;28;20042;-78
2021/08/01 06:07:57;;;;;;;6.90;3.78;;;29.20;52.40;;;;;;5115236;28;20047;-78
2021/08/01 06:10:23;;;;;;;8.55;4.05;;;29.20;52.60;;;;;;5115332;28;20027;-78
2021/08/01 06:12:49;;;;;;;5.03;3.63;;;29.30;51.90;;;;;;5115232;28;20173;-78
2021/08/01 06:15:15;;;;;;;6.40;3.70;;;29.40;52.40;;;;;;5115000;28;20063;-78
2021/08/01 06:17:40;;;;;;;6.82;3.72;;;29.40;52.40;;;;;;5115082;28;20042;-78
2021/08/01 06:20:07;;;;;;;6.40;3.53;;;29.50;51.80;;;;;;5114300;28;20471;-78
2021/08/01 06:22:33;;;;;;;7.25;3.78;;;29.50;51.90;;;;;;5114786;28;20042;-77
2021/08/01 06:24:58;;;;;;;7.60;3.30;;;29.50;51.30;;;;;;5114726;28;20024;-77
2021/08/01 06:27:24;;;;;;;4.20;3.30;;;29.40;51.30;;;;;;5115488;28;20045;-77
2021/08/01 06:29:50;;;;;;;7.65;3.47;;;29.40;50.70;;;;;;5096561;28;20130;-77
2021/08/01 06:32:16;;;;;;;6.60;3.60;;;29.50;50.90;;;;;;5114945;28;20039;-77
2021/08/01 06:34:42;;;;;;;8.50;3.20;;;29.50;50.70;;;;;;5114617;28;20059;-77
2021/08/01 06:37:08;;;;;;;10.05;3.92;;;29.40;49.70;;;;;;5114731;28;20112;-78
2021/08/01 06:39:34;;;;;;;7.65;3.65;;;29.40;49.90;;;;;;5114306;28;20380;-77
2021/08/01 06:42:00;;;;;;;6.70;3.28;;;29.40;49.80;;;;;;5114373;28;20161;-77
2021/08/01 06:44:26;;;;;;;6.07;4.00;;;29.30;49.70;;;;;;5113037;28;20486;-77
2021/08/01 06:46:52;;;;;;;9.20;3.58;;;29.20;50.00;;;;;;5114669;28;20044;-77
2021/08/01 06:49:18;;;;;;;10.30;4.15;;;29.20;50.10;;;;;;5113812;28;20038;-78
2021/08/01 06:51:44;;;;;;;5.88;3.30;;;29.20;49.80;;;;;;5114398;28;20062;-77
2021/08/01 06:54:10;;;;;;;6.70;3.58;;;29.20;49.80;;;;;;5112902;28;20089;-77
2021/08/01 06:56:35;;;;;;;9.02;3.88;;;29.20;49.90;;;;;;5113869;28;20496;-76
2021/08/01 06:59:01;;;;;;;7.63;3.28;;;29.00;49.70;;;;;;5114389;28;20039;-77
2021/08/01 07:01:27;;;;;;;7.38;3.88;;;29.00;49.80;;;;;;5114496;28;20045;-82
2021/08/01 07:03:53;;;;;;;7.25;3.40;;;29.00;49.90;;;;;;5113924;28;20055;-83
2021/08/01 07:06:19;;;;;;;6.60;3.65;;;28.90;49.60;;;;;;5114206;28;20043;-83
2021/08/01 07:08:46;;;;;;;5.28;3.42;;;28.90;49.70;;;;;;5113822;28;20404;-83
2021/08/01 07:11:12;;;;;;;4.03;3.10;;;29.00;49.80;;;;;;5114108;28;20130;-83
2021/08/01 07:13:39;;;;;;;5.30;3.25;;;29.10;50.00;;;;;;5113802;28;20035;-85
2021/08/01 07:16:05;;;;;;;8.15;3.50;;;29.20;49.90;;;;;;5113829;28;20039;-85
2021/08/01 07:18:32;;;;;;;6.28;3.20;;;29.20;49.70;;;;;;5113491;28;20048;-83
2021/08/01 07:20:58;;;;;;;4.93;2.67;;;29.30;49.70;;;;;;5113530;28;20437;-80
2021/08/01 07:23:24;;;;;;;7.63;3.40;;;29.40;49.80;;;;;;5095010;28;20036;-80
2021/08/01 07:25:50;;;;;;;4.80;3.35;;;29.40;49.90;;;;;;5113272;28;20095;-85
2021/08/01 07:28:16;;;;;;;8.00;3.08;;;29.20;49.30;;;;;;5113453;28;20108;-83
2021/08/01 07:30:42;;;;;;;5.22;3.20;;;29.10;48.60;;;;;;5113016;28;20039;-80
2021/08/01 07:33:08;;;;;;;4.75;3.20;;;29.00;48.90;;;;;;5113247;28;20404;-79
2021/08/01 07:35:34;;;;;;;7.28;2.83;;;29.00;49.10;;;;;;5113559;28;20036;-79
2021/08/01 07:38:00;;;;;;;5.10;3.13;;;29.00;49.40;;;;;;5113287;28;20038;-82
2021/08/01 07:40:27;;;;;;;4.95;3.17;;;29.00;49.50;;;;;;5113572;28;20032;-81
2021/08/01 07:42:53;;;;;;;7.18;3.10;;;29.00;49.90;;;;;;5113238;28;20051;-80
2021/08/01 07:45:29;;;;;;;4.45;2.90;;;29.00;50.10;;;;;;5113063;28;20031;-80
2021/08/01 07:47:55;;;;;;;6.47;2.88;;;29.00;50.40;;;;;;5113257;28;20487;-81
2021/08/01 07:50:21;;;;;;;10.52;3.50;;;28.90;50.50;;;;;;5113054;28;20447;-81
2021/08/01 07:52:47;;;;;;;7.72;3.45;;;28.90;50.50;;;;;;5113280;28;20062;-80
2021/08/01 07:55:16;;;;;;;8.50;3.75;;;28.80;50.70;;;;;;5113347;28;20063;-81
2021/08/01 07:57:44;;;;;;;8.73;3.85;;;28.80;50.00;;;;;;5113481;28;20395;-81
2021/08/01 08:00:11;;;;;;;11.63;4.45;;;28.70;50.20;;;;;;5113635;28;20031;-79
2021/08/01 08:02:43;;;;;;;5.70;3.60;;;28.60;50.20;;;;;;5113697;28;20058;-81
2021/08/01 08:05:10;;;;;;;5.43;3.17;;;28.60;50.60;;;;;;5113127;28;20096;-81
2021/08/01 08:07:36;;;;;;;6.65;3.40;;;28.50;50.50;;;;;;5112895;28;20492;-80
2021/08/01 08:10:03;;;;;;;11.18;3.67;;;28.40;50.90;;;;;;5113291;28;20072;-80
2021/08/01 08:12:29;;;;;;;11.63;3.67;;;28.40;50.70;;;;;;5113220;28;20498;-80
2021/08/01 08:14:55;;;;;;;6.95;3.67;;;28.40;51.00;;;;;;5112471;28;20044;-81
2021/08/01 08:17:21;;;;;;;7.53;3.80;;;28.30;50.80;;;;;;5112626;28;20024;-80
2021/08/01 08:19:47;;;;;;;5.78;3.58;;;28.30;51.50;;;;;;5113281;28;20080;-80
2021/08/01 08:22:13;;;;;;;5.32;3.53;;;28.30;51.70;;;;;;5112737;28;20043;-80
2021/08/01 08:24:39;;;;;;;8.48;4.00;;;28.30;51.80;;;;;;5112740;28;20023;-80
2021/08/01 08:27:05;;;;;;;10.18;3.95;;;28.20;51.80;;;;;;5112805;28;20048;-80
2021/08/01 08:29:32;;;;;;;8.07;4.40;;;28.30;51.90;;;;;;5112495;28;20093;-80
2021/08/01 08:31:58;;;;;;;12.45;4.50;;;28.30;52.00;;;;;;5094379;28;20037;-80
2021/08/01 08:34:25;;;;;;;9.63;4.70;;;28.30;51.80;;;;;;5112967;28;20031;-80
2021/08/01 08:36:54;;;;;;;7.50;3.60;;;28.30;52.20;;;;;;5113000;28;20455;-80
2021/08/01 08:39:22;;;;;;;9.20;4.32;;;28.30;52.00;;;;;;5112688;28;20051;-80
2021/08/01 08:41:49;;;;;;;8.95;3.40;;;28.20;52.30;;;;;;5113445;28;20555;-80
2021/08/01 08:44:15;;;;;;;10.18;3.90;;;28.20;52.10;;;;;;5115754;28;20407;-80
2021/08/01 08:46:41;;;;;;;8.30;3.65;;;28.20;52.10;;;;;;5116475;28;20044;-80
2021/08/01 08:49:09;;;;;;;6.68;3.80;;;28.10;52.30;;;;;;5116680;28;20027;-80
2021/08/01 08:51:40;;;;;;;8.70;4.13;;;28.10;52.30;;;;;;5116691;28;20039;-80
2021/08/01 08:54:10;;;;;;;6.47;4.18;;;28.10;52.00;;;;;;5116683;28;20119;-80
2021/08/01 08:56:37;;;;;;;8.65;4.15;;;28.10;52.70;;;;;;5116856;28;20073;-79
2021/08/01 08:59:05;;;;;;;8.75;3.90;;;28.10;53.30;;;;;;5116154;28;20423;-80
2021/08/01 09:01:38;;;;;;;6.22;3.90;;;28.10;52.60;;;;;;5116758;28;20024;-79
2021/08/01 09:04:05;;;;;;;9.00;3.97;;;28.10;53.20;;;;;;5116682;28;20058;-80
2021/08/01 09:06:33;;;;;;;7.82;3.47;;;28.10;53.30;;;;;;5116340;28;20144;-79
2021/08/01 09:08:59;;;;;;;8.95;4.00;;;28.10;53.00;;;;;;5116182;28;20093;-80
2021/08/01 09:11:25;;;;;;;5.00;3.72;;;28.10;52.60;;;;;;5116420;28;20040;-80
2021/08/01 09:13:56;;;;;;;7.90;3.58;;;28.00;52.60;;;;;;5097831;28;20038;-80
2021/08/01 09:16:50;;;;;;;12.23;4.22;;;28.00;52.80;;;;;;5115935;28;20122;-79
2021/08/01 09:19:24;;;;;;;9.23;4.22;;;28.00;53.10;;;;;;5115915;28;20044;-79
2021/08/01 09:21:50;;;;;;;6.63;3.42;;;28.00;53.50;;;;;;5115883;28;20043;-80
2021/08/01 09:24:16;;;;;;;6.93;4.10;;;28.00;53.60;;;;;;5116120;28;20044;-80
2021/08/01 09:26:47;;;;;;;11.02;4.43;;;28.00;53.50;;;;;;5115738;28;20039;-80
2021/08/01 09:29:15;;;;;;;7.57;3.92;;;28.00;53.50;;;;;;5115838;28;20039;-80
2021/08/01 09:31:45;;;;;;;5.47;3.80;;;28.00;53.60;;;;;;5097246;28;20031;-80
2021/08/01 09:34:22;;;;;;;7.22;3.50;;;28.00;53.60;;;;;;5115848;28;20028;-80
2021/08/01 09:36:55;;;;;;;6.90;3.47;;;28.00;53.60;;;;;;5116297;28;20054;-80
2021/08/01 09:39:22;;;;;;;9.55;3.95;;;28.00;53.20;;;;;;5115394;28;20055;-80
2021/08/01 09:41:58;;;;;;;5.53;3.78;;;27.90;53.10;;;;;;5097485;28;20035;-80
2021/08/01 09:44:24;;;;;;;8.10;3.92;;;27.90;53.10;;;;;;5115717;28;20047;-81
2021/08/01 09:46:50;;;;;;;13.75;3.78;;;27.90;52.90;;;;;;5115411;28;20052;-80
2021/08/01 09:49:20;;;;;;;7.57;3.78;;;27.90;52.70;;;;;;5115820;28;20039;-80
2021/08/01 09:51:52;;;;;;;9.93;4.18;;;27.90;52.80;;;;;;5097051;28;20165;-80
2021/08/01 09:54:19;;;;;;;9.25;4.05;;;27.80;52.80;;;;;;5114011;28;20488;-79
2021/08/01 09:57:00;;;;;;;6.60;3.75;;;27.80;52.50;;;;;;5115156;28;20047;-80
2021/08/01 09:59:28;;;;;;;8.30;3.75;;;27.80;52.60;;;;;;5096513;28;20032;-80
2021/08/01 10:01:57;;;;;;;6.63;3.70;;;27.80;52.60;;;;;;5114914;28;20032;-79
2021/08/01 10:04:25;;;;;;;11.52;3.83;;;27.80;52.40;;;;;;5096976;28;20050;-80
2021/08/01 10:07:20;;;;;;;6.55;3.85;;;27.80;52.30;;;;;;5115065;28;20050;-80
2021/08/01 10:09:49;;;;;;;7.25;3.80;;;27.80;52.60;;;;;;5101755;28;20048;-80
2021/08/01 10:12:16;;;;;;;6.63;4.00;;;27.80;52.70;;;;;;5114977;28;20399;-81
2021/08/01 10:14:43;;;;;;;9.73;4.10;;;27.80;53.00;;;;;;5114978;28;20032;-79
2021/08/01 10:17:08;;;;;;;6.88;3.75;;;27.80;53.40;;;;;;5113711;28;20050;-83
2021/08/01 10:19:36;;;;;;;7.88;3.90;;;27.70;53.20;;;;;;5096537;28;20043;-81
2021/08/01 10:22:11;;;;;;;7.80;4.18;;;27.70;53.30;;;;;;5114951;28;20038;-81
2021/08/01 10:24:41;;;;;;;6.03;3.83;;;27.70;53.70;;;;;;5114696;28;20071;-82
2021/08/01 10:27:08;;;;;;;7.30;4.60;;;27.70;53.90;;;;;;5096358;28;20050;-81
2021/08/01 10:29:54;;;;;;;9.07;4.05;;;27.70;54.50;;;;;;5096358;28;20081;-81
2021/08/01 10:32:21;;;;;;;7.75;4.68;;;27.70;54.60;;;;;;5115836;28;20050;-81
2021/08/01 10:35:06;;;;;;;6.35;4.25;;;27.70;54.60;;;;;;5100633;28;20028;-81
2021/08/01 10:37:39;;;;;;;6.50;4.38;;;27.70;55.00;;;;;;5115784;28;20435;-81
2021/08/01 10:40:07;;;;;;;7.82;4.63;;;27.70;55.50;;;;;;5096639;28;20531;-81
2021/08/01 10:42:37;;;;;;;8.10;4.20;;;27.70;55.80;;;;;;5096299;28;20027;-81
2021/08/01 10:45:05;;;;;;;7.57;4.15;;;27.60;56.30;;;;;;5096304;28;20078;-81
2021/08/01 10:47:33;;;;;;;6.88;4.97;;;27.60;56.80;;;;;;5114170;28;20043;-82
2021/08/01 10:50:05;;;;;;;13.60;4.55;;;27.60;57.10;;;;;;5096127;28;20126;-82
2021/08/01 10:52:35;;;;;;;6.78;4.47;;;27.60;57.40;;;;;;5115032;28;20074;-82
2021/08/01 10:55:06;;;;;;;8.60;4.70;;;27.60;57.70;;;;;;5079145;28;20039;-81
2021/08/01 10:57:33;;;;;;;9.95;4.78;;;27.60;57.90;;;;;;5096465;28;20055;-81
2021/08/01 11:00:04;;;;;;;5.10;4.53;;;27.60;58.40;;;;;;5114172;28;20456;-81
2021/08/01 11:02:32;;;;;;;7.57;4.72;;;27.60;58.50;;;;;;5096184;28;20073;-81
2021/08/01 11:04:58;;;;;;;5.40;4.95;;;27.60;58.80;;;;;;5113728;28;20035;-82
2021/08/01 11:07:27;;;;;;;7.75;5.45;;;27.50;59.00;;;;;;5113669;28;20059;-82
2021/08/01 11:10:10;;;;;;;7.40;4.97;;;27.50;59.40;;;;;;5113654;28;20112;-81
2021/08/01 11:12:46;;;;;;;7.03;5.15;;;27.50;59.80;;;;;;5095590;28;20142;-82
2021/08/01 11:15:14;;;;;;;6.22;5.40;;;27.40;60.20;;;;;;5095651;28;20024;-82
2021/08/01 11:17:43;;;;;;;7.47;4.97;;;27.40;60.60;;;;;;5113669;28;20043;-81
2021/08/01 11:20:24;;;;;;;7.32;5.28;;;27.40;60.80;;;;;;5113766;28;20084;-82
2021/08/01 11:22:51;;;;;;;5.93;5.00;;;27.30;60.90;;;;;;5113746;28;20057;-82
2021/08/01 11:25:34;;;;;;;8.32;5.47;;;27.20;61.10;;;;;;5095460;28;20031;-81
2021/08/01 11:28:12;;;;;;;7.32;5.40;;;27.20;61.30;;;;;;5095354;28;20043;-81
2021/08/01 11:30:55;;;;;;;6.80;5.68;;;27.20;61.50;;;;;;5113371;28;20036;-82
2021/08/01 11:33:33;;;;;;;8.73;5.45;;;27.10;61.70;;;;;;5113417;28;20039;-81
2021/08/01 11:36:17;;;;;;;5.85;5.30;;;27.10;62.20;;;;;;5095205;28;20051;-82
2021/08/01 11:38:52;;;;;;;6.90;5.65;;;27.00;62.20;;;;;;5113466;28;20031;-82
2021/08/01 11:41:31;;;;;;;6.85;5.88;;;27.00;62.40;;;;;;5095508;28;20075;-83
2021/08/01 11:44:11;;;;;;;8.00;5.90;;;27.00;62.60;;;;;;5113428;28;20038;-82
2021/08/01 11:46:59;;;;;;;6.93;5.65;;;27.00;62.60;;;;;;5113838;28;20048;-83
2021/08/01 11:49:42;;;;;;;6.30;5.65;;;27.00;62.80;;;;;;5113865;28;20040;-83
2021/08/01 11:52:10;;;;;;;6.10;5.50;;;27.00;63.00;;;;;;5113473;28;20063;-82
2021/08/01 11:54:42;;;;;;;8.93;5.93;;;26.90;64.00;;;;;;5113094;28;20050;-83
2021/08/01 11:57:13;;;;;;;10.77;6.18;;;26.90;64.30;;;;;;5113884;28;20023;-83
2021/08/01 11:59:40;;;;;;;8.10;5.88;;;26.90;64.50;;;;;;5113207;28;20038;-84
2021/08/01 12:02:11;;;;;;;11.00;6.45;;;26.90;64.80;;;;;;5113158;28;20034;-84
2021/08/01 12:04:38;;;;;;;6.78;6.07;;;26.90;64.90;;;;;;5113129;28;20089;-84
2021/08/01 12:07:05;;;;;;;9.15;6.45;;;26.90;64.80;;;;;;5113098;28;20519;-84
2021/08/01 12:09:37;;;;;;;11.18;6.47;;;26.90;65.20;;;;;;5113121;28;20036;-84
2021/08/01 12:12:05;;;;;;;9.38;6.82;;;26.80;65.50;;;;;;5113137;28;20042;-84
2021/08/01 12:14:36;;;;;;;10.25;6.50;;;26.80;66.10;;;;;;5112960;28;20093;-84
2021/08/01 12:17:07;;;;;;;8.65;6.45;;;26.80;66.20;;;;;;5094816;28;20035;-84
2021/08/01 12:19:38;;;;;;;12.00;7.53;;;26.80;66.60;;;;;;5117217;28;20043;-84
2021/08/01 12:22:18;;;;;;;11.77;7.22;;;26.70;66.80;;;;;;5117460;28;20089;-83
2021/08/01 12:24:56;;;;;;;9.35;7.10;;;26.80;67.30;;;;;;5117241;28;20495;-84
2021/08/01 12:27:29;;;;;;;16.83;7.75;;;26.80;67.30;;;;;;5117118;28;20031;-83
2021/08/01 12:30:05;;;;;;;13.50;7.47;;;26.70;67.00;;;;;;5098497;28;20063;-83
2021/08/01 12:32:36;;;;;;;9.05;7.07;;;26.60;67.00;;;;;;5117630;28;20110;-91
2021/08/01 12:35:25;;;;;;;12.30;7.57;;;26.60;67.10;;;;;;5116847;28;20438;-80
2021/08/01 12:38:00;;;;;;;11.10;7.75;;;26.60;67.20;;;;;;5116982;28;20119;-80
2021/08/01 12:40:28;;;;;;;10.93;7.75;;;26.60;67.20;;;;;;5117416;28;20070;-80
2021/08/01 12:43:00;;;;;;;8.65;6.60;;;26.50;67.20;;;;;;5117683;28;20365;-79
2021/08/01 12:45:41;;;;;;;7.90;6.72;;;26.50;67.40;;;;;;5116599;28;20034;-80
2021/08/01 12:48:11;;;;;;;10.20;6.55;;;26.50;67.50;;;;;;5117060;28;20061;-78
2021/08/01 12:50:43;;;;;;;10.05;6.95;;;26.50;67.90;;;;;;5116713;28;20036;-79
2021/08/01 12:53:19;;;;;;;11.00;7.55;;;26.40;68.30;;;;;;5116680;28;20418;-79
2021/08/01 12:55:54;;;;;;;8.93;7.68;;;26.30;69.10;;;;;;5116452;28;20031;-79
2021/08/01 12:58:30;;;;;;;11.73;7.72;;;26.30;69.90;;;;;;5117164;28;20395;-79